createdAt,value
2023-03-28T00:08:35.308Z,92.2
2023-03-28T00:14:19.950Z,92.2
2023-03-28T00:18:48.338Z,92.2
2023-03-28T00:24:18.829Z,92.2
2023-03-28T00:34:07.550Z,92.2
2023-03-28T00:39:37.946Z,92.2
2023-03-28T00:49:51.863Z,92.1
2023-03-28T00:59:40.551Z,92.4
2023-03-28T01:05:10.985Z,92.7
2023-03-28T01:10:47.395Z,92.6
2023-03-28T01:15:19.711Z,92.6
2023-03-28T01:21:00.328Z,92.9
2023-03-28T01:25:56.667Z,92.6
2023-03-28T01:30:19.045Z,92.6
2023-03-28T01:35:25.461Z,92.5
2023-03-28T01:40:31.864Z,92.6
2023-03-28T01:50:44.645Z,92.7
2023-03-28T01:56:11.082Z,92.6
2023-03-28T02:00:57.414Z,92.6
2023-03-28T02:06:03.787Z,92.8
2023-03-28T02:11:10.160Z,92.8
2023-03-28T02:16:16.824Z,92.8
2023-03-28T02:21:23.111Z,92.9
2023-03-28T02:26:49.647Z,92.9
2023-03-28T02:32:00.163Z,92.9
2023-03-28T02:36:42.402Z,92.8
2023-03-28T02:46:55.153Z,92.8
2023-03-28T03:02:15.541Z,92.7
2023-03-28T03:07:21.950Z,92.7
2023-03-28T03:12:28.318Z,92.7
2023-03-28T03:17:34.736Z,92.7
2023-03-28T03:22:41.144Z,92.7
2023-03-28T03:27:47.462Z,93.1
2023-03-28T03:32:53.879Z,93.0
2023-03-28T03:39:14.387Z,93.1
2023-03-28T03:43:06.686Z,93.0
2023-03-28T03:48:13.064Z,93.1
2023-03-28T03:53:19.599Z,93.0
2023-03-28T03:58:26.004Z,92.9
2023-03-28T04:03:32.363Z,92.8
2023-03-28T04:08:38.734Z,92.8
2023-03-28T04:13:45.161Z,92.9
2023-03-28T04:19:15.585Z,92.9
2023-03-28T04:24:17.964Z,92.9
2023-03-28T04:29:04.355Z,93.0
2023-03-28T04:34:10.900Z,93.0
2023-03-28T04:39:17.283Z,93.1
2023-03-28T04:44:23.694Z,93.2
2023-03-28T04:49:30.049Z,93.3
2023-03-28T04:54:36.420Z,93.4
2023-03-28T05:00:06.890Z,93.4
2023-03-28T05:04:49.171Z,93.3
2023-03-28T05:09:55.553Z,93.5
2023-03-28T05:15:02.181Z,93.4
2023-03-28T05:20:28.645Z,93.7
2023-03-28T05:35:27.911Z,94.3
2023-03-28T05:41:18.394Z,94.1
2023-03-28T05:45:40.680Z,94.3
2023-03-28T05:51:07.111Z,94.4
2023-03-28T06:01:00.170Z,94.4
2023-03-28T06:06:06.303Z,94.4
2023-03-28T06:11:12.800Z,94.6
2023-03-28T06:16:39.476Z,94.7
2023-03-28T06:21:25.773Z,94.9
2023-03-28T06:26:32.187Z,95.0
2023-03-28T06:31:38.610Z,95.5
2023-03-28T06:36:44.988Z,95.6
2023-03-28T06:52:04.222Z,96.9
2023-03-28T06:57:10.727Z,97.5
2023-03-28T07:02:17.086Z,98.5
2023-03-28T07:07:23.499Z,98.8
2023-03-28T07:12:29.829Z,99.4
2023-03-28T07:17:36.379Z,99.9
2023-03-28T07:22:42.760Z,99.9
2023-03-28T07:28:13.277Z,99.9
2023-03-28T07:33:05.294Z,99.9
2023-03-28T07:38:48.635Z,99.9
2023-03-28T07:44:11.804Z,99.9
2023-03-28T07:48:38.120Z,99.9
2023-03-28T07:54:05.594Z,99.9
2023-03-28T08:03:58.364Z,99.9
2023-03-28T08:08:40.624Z,99.3
2023-03-28T08:14:11.091Z,98.7
2023-03-28T08:24:33.036Z,96.9
2023-03-28T08:29:06.260Z,96.4
2023-03-28T08:34:02.764Z,96.0
2023-03-28T08:39:18.024Z,95.1
2023-03-28T08:49:31.835Z,93.7
2023-03-28T08:54:38.391Z,93.2
2023-03-28T09:04:51.166Z,93.5
2023-03-28T09:10:21.576Z,93.2
2023-03-28T09:15:03.904Z,93.1
2023-03-28T09:20:10.334Z,92.4
2023-03-28T09:25:40.709Z,91.7
2023-03-28T09:30:23.062Z,91.5
2023-03-28T09:35:29.474Z,91.2
2023-03-28T09:40:35.970Z,90.8
2023-03-28T09:45:42.294Z,88.1
2023-03-28T09:50:48.667Z,84.6
2023-03-28T09:56:04.315Z,81.5
2023-03-28T10:00:51.393Z,80.8
2023-03-28T10:06:31.901Z,81.9
2023-03-28T10:11:14.170Z,81.8
2023-03-28T10:17:17.781Z,83.2
2023-03-28T10:26:34.463Z,84.1
2023-03-28T10:32:00.872Z,83.3
2023-03-28T10:41:53.620Z,80.5
2023-03-28T10:46:59.991Z,80.3
2023-03-28T10:52:06.361Z,76.3
2023-03-28T10:57:02.861Z,74.9
2023-03-28T11:02:19.189Z,73.0
2023-03-28T11:07:26.687Z,72.5
2023-03-28T11:12:40.916Z,71.5
2023-03-28T11:18:02.925Z,70.7
2023-03-28T11:23:06.564Z,71.7
2023-03-28T11:32:58.083Z,72.4
2023-03-28T11:38:04.445Z,73.2
2023-03-28T11:48:17.246Z,74.4
2023-03-28T11:53:43.626Z,74.4
2023-03-28T11:58:29.994Z,74.9
2023-03-28T12:03:36.406Z,75.6
2023-03-28T12:08:42.714Z,74.9
2023-03-28T12:13:55.418Z,75.8
2023-03-28T12:19:15.560Z,76.7
2023-03-28T12:24:02.036Z,77.1
2023-03-28T12:29:08.410Z,78.1
2023-03-28T12:35:36.891Z,78.9
2023-03-28T12:39:41.170Z,79.2
2023-03-28T12:44:27.650Z,77.7
2023-03-28T12:49:34.022Z,77.5
2023-03-28T12:55:04.424Z,78.4
2023-03-28T13:00:10.832Z,79.0
2023-03-28T13:05:37.180Z,79.1
2023-03-28T13:10:19.519Z,78.8
2023-03-28T13:15:05.966Z,79.4
2023-03-28T13:20:12.380Z,79.7
2023-03-28T13:25:38.764Z,79.8
2023-03-28T13:30:25.109Z,79.8
2023-03-28T13:35:21.624Z,79.5
2023-03-28T13:45:44.496Z,79.8
2023-03-28T13:50:50.908Z,80.1
2023-03-28T13:56:22.027Z,80.2
2023-03-28T14:06:12.349Z,80.0
2023-03-28T14:11:18.705Z,80.3
2023-03-28T14:16:25.214Z,80.5
2023-03-28T14:21:31.604Z,80.3
2023-03-28T14:26:38.039Z,79.8
2023-03-28T14:31:44.455Z,79.5
2023-03-28T14:36:50.815Z,79.7
2023-03-28T14:42:36.382Z,78.8
2023-03-28T14:47:02.650Z,78.4
2023-03-28T14:52:38.110Z,78.9
2023-03-28T14:57:16.441Z,77.4
2023-03-28T15:02:22.828Z,77.4
2023-03-28T15:07:43.284Z,77.4
2023-03-28T15:17:42.601Z,77.7
2023-03-28T15:22:50.216Z,77.0
2023-03-28T15:27:56.294Z,77.8
2023-03-28T15:33:22.713Z,78.0
2023-03-28T15:38:29.216Z,77.9
2023-03-28T15:43:15.522Z,78.6
2023-03-28T15:48:45.956Z,78.7
2023-03-28T15:53:28.272Z,78.7
2023-03-28T16:00:11.099Z,78.2
2023-03-28T16:03:41.286Z,78.7
2023-03-28T16:08:47.552Z,78.5
2023-03-28T16:13:57.959Z,78.6
2023-03-28T16:19:00.380Z,78.5
2023-03-28T16:24:06.730Z,77.9
2023-03-28T16:29:13.220Z,78.0
2023-03-28T16:34:19.721Z,78.4
2023-03-28T16:39:26.074Z,79.3
2023-03-28T16:44:52.518Z,79.8
2023-03-28T16:49:38.858Z,80.2
2023-03-28T16:54:44.359Z,80.9
2023-03-28T17:04:58.352Z,81.4
2023-03-28T17:10:04.738Z,81.4
2023-03-28T17:15:11.084Z,82.2
2023-03-28T17:20:37.519Z,82.5
2023-03-28T17:25:23.879Z,82.6
2023-03-28T17:30:20.218Z,82.8
2023-03-28T17:35:36.697Z,83.0
2023-03-28T17:41:03.065Z,83.1
2023-03-28T17:45:49.387Z,84.4
2023-03-28T17:50:45.874Z,84.5
2023-03-28T17:56:02.600Z,84.8
2023-03-28T18:01:08.816Z,84.9
2023-03-28T18:06:18.945Z,85.0
2023-03-28T18:16:31.863Z,85.3
2023-03-28T18:21:38.508Z,85.5
2023-03-28T18:26:44.859Z,85.6
2023-03-28T18:31:51.337Z,85.7
2023-03-28T18:37:00.449Z,85.6
2023-03-28T18:42:07.950Z,85.7
2023-03-28T18:47:14.356Z,85.8
2023-03-28T18:52:20.703Z,86.1
2023-03-28T18:58:16.448Z,86.2
2023-03-28T19:03:24.026Z,86.2
2023-03-28T19:09:53.425Z,86.2
2023-03-28T19:14:27.896Z,86.5
2023-03-28T19:19:34.399Z,86.5
2023-03-28T19:29:47.150Z,86.7
2023-03-28T19:35:14.212Z,87.1
2023-03-28T19:40:01.166Z,87.3
2023-03-28T19:45:07.531Z,87.5
2023-03-28T19:50:52.057Z,87.6
2023-03-28T20:00:26.881Z,87.9
2023-03-28T20:05:32.272Z,88.0
2023-03-28T20:11:04.085Z,88.1
2023-03-28T20:15:42.169Z,87.7
2023-03-28T20:15:46.153Z,88.4
2023-03-28T20:20:52.479Z,88.5
2023-03-28T20:27:12.348Z,88.5
2023-03-28T20:31:45.855Z,88.3
2023-03-28T20:36:51.665Z,87.2
2023-03-28T20:41:59.052Z,87.3
2023-03-28T20:47:05.478Z,86.8
2023-03-28T20:52:54.832Z,87.2
2023-03-28T20:57:18.312Z,87.1
2023-03-28T21:02:24.681Z,87.3
2023-03-28T21:08:05.084Z,87.8
2023-03-28T21:12:37.397Z,88.6
2023-03-28T21:17:43.884Z,88.8
2023-03-28T21:22:50.190Z,89.7
2023-03-28T21:27:56.734Z,89.8
2023-03-28T21:33:03.733Z,89.8
2023-03-28T21:38:09.460Z,90.0
2023-03-28T21:43:15.950Z,90.3
2023-03-28T21:48:22.370Z,90.3
2023-03-28T21:53:28.736Z,90.4
2023-03-28T21:58:35.291Z,90.4
2023-03-28T22:03:41.841Z,90.5
2023-03-28T22:08:48.120Z,90.8
2023-03-28T22:14:14.653Z,91.0
2023-03-28T22:19:02.132Z,91.0
2023-03-28T22:24:28.610Z,90.9
2023-03-28T22:29:14.938Z,91.0
2023-03-28T22:34:21.340Z,91.2
2023-03-28T22:39:27.704Z,91.2
2023-03-28T22:44:54.151Z,91.3
2023-03-28T22:49:40.536Z,91.4
2023-03-28T22:54:46.924Z,91.4
2023-03-28T22:59:53.294Z,91.6
2023-03-28T23:04:59.749Z,91.6
2023-03-28T23:10:06.048Z,91.7
2023-03-28T23:15:12.453Z,91.8
2023-03-28T23:20:18.838Z,91.7
2023-03-28T23:25:25.290Z,91.9
2023-03-28T23:30:31.665Z,92.0
2023-03-28T23:35:38.110Z,92.0
2023-03-28T23:40:44.405Z,92.0
2023-03-28T23:46:10.891Z,92.0
